Latest Weather Observations for Sunshine Coast Airport

IDQ60801

Issued at 11:02 pm EST Friday 15 November 2019 (issued every 10 minutes, with the page automatically refreshed every 10 minutes)

About weather observations | Map of weather stations | Latest weather observations for QLD | Other Formats
Station Details ID: 040861 Name: SUNSHINE COAST AIRPORT Lat: -26.60 Lon: 153.09 Height: 3.42 m
Data from the previous 72 hours. | See also: Recent months at Sunshine Coast Airport
Date/Time
EST
Temp
°C
App
Temp
°C
Dew
Point
°C
Rel
Hum
%
Delta-T
°C
Wind Press
QNH
hPa
Press
MSL
hPa
Rain since
9am
mm
Dir  Spd
km/h
Gust
km/h
Spd
kts
Gust
kts
15/11:00pm 22.0 22.5 18.4 80 2.3 N 13 19 7 10 1013.8 1013.8 0.0
15/10:30pm 21.8 22.1 18.0 79 2.4 N 13 17 7 9 1013.8 1013.8 0.0
15/10:00pm 22.4 21.4 18.0 76 2.7 NNW 20 28 11 15 1013.6 1013.6 0.0
15/09:30pm 22.6 21.9 18.2 76 2.8 NNW 19 24 10 13 1013.1 1013.1 0.0
15/09:00pm 22.7 22.0 18.3 76 2.8 NNW 19 26 10 14 1013.2 1013.2 0.0
15/08:30pm 22.9 23.2 18.0 74 3.1 NNW 13 20 7 11 1013.1 1013.1 0.0
15/08:00pm 23.7 23.5 18.6 73 3.2 NNW 17 22 9 12 1012.5 1012.5 0.0
15/07:30pm 24.4 23.0 18.8 71 3.6 N 24 32 13 17 1012.0 1012.0 0.0
15/07:00pm 24.5 22.8 18.2 68 4.0 N 24 37 13 20 1011.8 1011.8 0.0
15/06:30pm 24.6 23.8 18.5 69 3.9 N 20 32 11 17 1011.4 1011.4 0.0
15/06:00pm 24.3 23.7 20.6 80 2.4 N 24 33 13 18 1011.2 1011.2 0.0
15/05:30pm 24.6 22.8 20.3 77 2.8 N 30 41 16 22 1010.7 1010.7 0.0
15/05:00pm 25.1 23.2 20.1 74 3.2 N 30 44 16 24 1010.1 1010.1 0.0
15/04:30pm 25.7 22.9 20.3 72 3.5 NNE 35 50 19 27 1009.8 1009.8 0.0
15/04:00pm 26.0 22.8 20.3 71 3.7 NNE 37 50 20 27 1009.8 1009.8 0.0
15/03:30pm 26.5 24.4 21.0 72 3.6 NNE 33 44 18 24 1009.9 1009.9 0.0
15/03:00pm 26.8 24.9 21.3 72 3.7 NNE 33 43 18 23 1009.9 1009.9 0.0
15/02:30pm 27.1 24.8 21.2 70 3.9 NNE 35 44 19 24 1010.0 1010.0 0.0
15/02:00pm 27.0 24.8 21.5 72 3.7 NNE 35 43 19 23 1010.5 1010.5 0.0
15/01:30pm 27.2 25.7 21.7 72 3.7 NE 32 37 17 20 1011.1 1011.1 0.0
15/01:00pm 26.9 25.3 21.9 74 3.3 NE 33 41 18 22 1011.6 1011.6 0.0
15/12:30pm 26.7 25.6 21.7 74 3.3 NE 30 37 16 20 1012.1 1012.1 0.0
15/12:00pm 27.4 26.9 22.1 73 3.6 NE 28 33 15 18 1012.4 1012.4 0.0
15/11:30am 27.4 27.8 22.4 74 3.4 NE 24 30 13 16 1013.0 1013.0 0.0
15/11:00am 27.3 28.0 22.3 74 3.4 NE 22 28 12 15 1013.5 1013.5 0.0
15/10:30am 26.9 27.6 21.6 72 3.5 NE 20 24 11 13 1014.0 1014.0 0.0
15/10:00am 25.6 26.1 20.8 75 3.2 NE 19 24 10 13 1014.4 1014.4 0.0
15/09:30am 26.2 27.5 21.6 76 3.1 ENE 17 20 9 11 1014.6 1014.6 0.0
15/09:00am 26.0 27.4 21.0 74 3.3 ENE 15 17 8 9 1014.8 1014.8 0.0
15/08:39am 25.1 26.7 20.8 77 2.8 ENE 13 17 7 9 1014.8 1014.8 0.0
15/08:30am 24.9 26.8 20.6 77 2.8 NE 11 17 6 9 1015.0 1014.9 0.0
15/08:20am 24.9 27.0 21.0 79 2.6 ENE 11 15 6 8 1014.8 1014.8 0.0
15/08:01am 25.0 26.6 20.0 74 3.2 NW 11 17 6 9 1015.0 1014.9 0.0
15/08:00am 24.9 26.5 19.9 74 3.2 NW 11 17 6 9 1015.0 1014.9 0.0
15/07:30am 24.0 26.7 20.7 82 2.2 NW 7 11 4 6 1015.0 1014.9 0.0
15/07:02am 22.7 25.5 20.8 89 1.2 WNW 7 9 4 5 1014.8 1014.8 0.0
15/07:00am 22.6 25.4 20.9 90 1.1 WNW 7 9 4 5 1014.8 1014.8 0.0
15/06:30am 20.8 20.6 13.5 63 4.2 WNW 7 9 4 5 1014.6 1014.6 0.0
15/06:02am 20.1 21.2 14.5 70 3.3 WNW 2 7 1 4 1014.5 1014.5 0.0
15/06:00am 20.2 23.5 19.9 98 0.2 WNW 2 7 1 4 1014.4 1014.4 0.0
15/05:31am 19.3 20.3 18.6 96 0.4 NW 11 17 6 9 1014.1 1014.1 0.0
15/05:30am 19.3 19.9 18.6 96 0.4 NW 13 17 7 9 1014.1 1014.1 0.0
15/05:00am 18.4 20.9 17.2 93 0.7 CALM 0 6 0 3 1013.5 1013.5 0.0
15/04:30am 18.2 18.8 16.9 92 0.8 NW 9 11 5 6 1013.1 1013.1 0.0
15/04:20am 18.3 20.7 17.1 93 0.7 CALM 0 6 0 3 1013.1 1013.1 0.0
15/04:00am 19.4 21.2 18.4 94 0.6 WSW 6 7 3 4 1012.9 1012.9 0.0
15/03:30am 19.6 21.3 18.6 94 0.6 WNW 7 9 4 5 1012.9 1012.9 0.0
15/03:05am 19.1 21.0 17.6 91 0.9 WNW 4 7 2 4 1013.1 1013.1 0.0
15/03:00am 19.0 20.3 17.5 91 0.9 WNW 7 9 4 5 1013.1 1013.1 0.0
15/02:42am 18.8 19.9 17.1 90 1.0 WNW 7 7 4 4 1013.2 1013.2 0.0
15/02:30am 19.2 20.4 17.3 89 1.2 WNW 7 9 4 5 1013.2 1013.2 0.0
15/02:00am 20.0 21.6 17.8 87 1.4 WSW 6 7 3 4 1013.1 1013.1 0.0
15/01:30am 20.7 22.6 18.6 88 1.3 W 6 9 3 5 1013.3 1013.3 0.0
15/01:00am 20.5 21.9 18.6 89 1.2 NW 9 11 5 6 1013.5 1013.5 0.0
15/12:30am 20.4 21.9 18.0 86 1.5 W 7 7 4 4 1013.8 1013.8 0.0
15/12:00am 21.5 23.5 18.7 84 1.8 SSW 6 9 3 5 1013.9 1013.9 0.0
 
Date/Time
EST
Temp
°C
App
Temp
°C
Dew
Point
°C
Rel
Hum
%
Delta-T
°C
Wind Press
QNH
hPa
Press
MSL
hPa
Rain since
9am
mm
Dir  Spd
km/h
Gust
km/h
Spd
kts
Gust
kts
14/11:30pm 21.3 22.7 18.7 85 1.6 WSW 9 9 5 5 1014.3 1014.3 0.0
14/11:00pm 21.1 22.9 18.3 84 1.7 ENE 6 9 3 5 1014.5 1014.5 0.0
14/10:30pm 22.3 25.8 19.5 84 1.8 CALM 0 0 0 0 1014.3 1014.3 0.0
14/10:00pm 21.9 23.8 18.9 83 1.9 N 7 7 4 4 1014.4 1014.4 0.0
14/09:52pm 22.1 24.3 19.1 83 1.9 NNE 6 7 3 4 1014.3 1014.3 0.0
14/09:30pm 22.2 24.0 18.8 81 2.1 N 7 13 4 7 1014.1 1014.1 0.0
14/09:00pm 22.8 24.8 20.0 84 1.8 NE 9 13 5 7 1014.0 1014.0 0.0
14/08:30pm 22.8 23.9 19.6 82 2.0 NE 13 13 7 7 1013.8 1013.8 0.0
14/08:02pm 22.8 23.9 19.6 82 2.0 NE 13 15 7 8 1013.7 1013.7 0.0
14/08:00pm 22.8 23.9 19.6 82 2.0 NNE 13 17 7 9 1013.7 1013.7 0.0
14/07:30pm 21.9 22.3 18.1 79 2.4 NNE 13 17 7 9 1013.3 1013.3 0.0
14/07:00pm 22.3 22.4 18.3 78 2.5 NNE 15 20 8 11 1013.0 1013.0 0.0
14/06:30pm 22.5 22.6 18.3 77 2.6 NE 15 17 8 9 1012.9 1012.9 0.0
14/06:00pm 22.8 23.2 18.1 75 2.9 ENE 13 17 7 9 1012.6 1012.6 0.0
14/05:30pm 23.3 23.3 18.0 72 3.3 NE 15 19 8 10 1012.2 1012.2 0.0
14/05:00pm 23.9 23.6 18.3 71 3.5 NE 17 20 9 11 1011.9 1011.9 0.0
14/04:30pm 24.3 23.2 17.8 67 4.1 ENE 20 24 11 13 1011.8 1011.8 0.0
14/04:00pm 24.7 23.6 17.7 65 4.4 ENE 20 26 11 14 1011.6 1011.6 0.0
14/03:30pm 24.9 23.7 17.6 64 4.6 ENE 20 24 11 13 1012.0 1012.0 0.0
14/03:00pm 25.4 23.8 16.5 58 5.5 ENE 20 24 11 13 1012.1 1012.1 0.0
14/02:30pm 25.8 24.6 17.4 59 5.2 ENE 20 26 11 14 1012.2 1012.2 0.0
14/02:00pm 25.8 24.4 16.9 58 5.5 ENE 20 24 11 13 1012.5 1012.5 0.0
14/01:30pm 26.1 24.3 16.9 57 5.7 ENE 22 28 12 15 1012.9 1012.9 0.0
14/01:00pm 25.7 24.0 16.3 56 5.8 E 20 26 11 14 1013.3 1013.3 0.0
14/12:30pm 25.9 24.3 16.5 56 5.8 E 20 24 11 13 1013.9 1013.9 0.0
14/12:00pm 25.5 23.6 15.8 55 5.9 E 20 24 11 13 1014.3 1014.3 0.0
14/11:30am 25.6 24.1 16.2 56 5.8 E 19 24 10 13 1014.6 1014.6 0.0
14/11:00am 25.2 23.7 16.4 58 5.4 ESE 19 24 10 13 1015.1 1015.0 0.0
14/10:30am 25.4 24.0 16.5 58 5.5 ESE 19 24 10 13 1015.5 1015.4 0.0
14/10:00am 24.9 23.3 16.1 58 5.4 ESE 19 24 10 13 1015.9 1015.8 0.0
14/09:30am 24.5 23.1 16.5 61 4.9 ESE 19 24 10 13 1016.2 1016.1 0.0
14/09:00am 24.4 23.2 16.1 60 5.0 ESE 17 22 9 12 1016.4 1016.3 0.0
14/08:30am 24.1 22.8 15.9 60 5.0 SE 17 22 9 12 1016.3 1016.2 0.0
14/08:00am 23.9 22.4 16.2 62 4.7 SE 19 24 10 13 1016.3 1016.2 0.0
14/07:30am 23.4 22.2 16.0 63 4.5 SE 17 20 9 11 1016.0 1015.9 0.0
14/07:00am 23.3 21.8 16.4 65 4.2 SE 19 24 10 13 1015.8 1015.7 0.0
14/06:30am 23.0 22.1 16.8 68 3.8 SE 17 22 9 12 1015.5 1015.4 0.0
14/06:00am 22.2 20.9 16.7 71 3.4 SE 19 24 10 13 1015.0 1014.9 0.0
14/05:30am 21.6 20.7 16.8 74 2.9 SE 17 22 9 12 1014.6 1014.6 0.0
14/05:00am 21.5 20.2 16.9 75 2.8 SE 19 26 10 14 1014.2 1014.2 0.0
14/04:30am 21.5 20.6 16.9 75 2.8 SE 17 24 9 13 1013.9 1013.9 0.0
14/04:00am 21.5 20.2 16.7 74 2.9 SE 19 26 10 14 1013.6 1013.6 0.0
14/03:30am 21.5 20.2 16.7 74 2.9 SE 19 24 10 13 1013.4 1013.4 0.0
14/03:00am 21.5 20.7 17.1 76 2.7 SE 17 20 9 11 1013.3 1013.3 0.0
14/02:30am 21.7 20.6 17.3 76 2.7 SE 19 24 10 13 1013.4 1013.4 0.0
14/02:00am 21.8 20.7 17.2 75 2.8 SE 19 26 10 14 1013.4 1013.4 0.0
14/01:30am 21.9 20.7 17.5 76 2.7 SE 20 26 11 14 1013.4 1013.4 0.0
14/01:00am 22.0 20.9 17.4 75 2.8 SE 19 24 10 13 1013.7 1013.7 0.0
14/12:30am 22.0 20.7 17.2 74 2.9 ESE 20 28 11 15 1013.6 1013.6 0.0
14/12:00am 22.4 20.8 17.5 74 3.0 SE 22 30 12 16 1013.8 1013.8 0.0
 
Date/Time
EST
Temp
°C
App
Temp
°C
Dew
Point
°C
Rel
Hum
%
Delta-T
°C
Wind Press
QNH
hPa
Press
MSL
hPa
Rain since
9am
mm
Dir  Spd
km/h
Gust
km/h
Spd
kts
Gust
kts
13/11:30pm 22.3 21.1 17.4 74 3.0 SE 20 26 11 14 1014.0 1014.0 0.0
13/11:00pm 22.5 20.9 17.4 73 3.1 SE 22 30 12 16 1014.0 1014.0 0.0
13/10:30pm 22.6 21.2 17.9 75 2.9 SE 22 30 12 16 1014.2 1014.2 0.0
13/10:00pm 22.7 20.7 17.4 72 3.3 SE 24 30 13 16 1014.2 1014.2 0.0
13/09:30pm 22.8 21.0 17.9 74 3.1 SE 24 32 13 17 1014.1 1014.1 0.0
13/09:00pm 22.9 21.5 18.0 74 3.1 SSE 22 32 12 17 1013.7 1013.7 0.0
13/08:30pm 22.9 21.2 18.0 74 3.1 SSE 24 32 13 17 1013.4 1013.4 0.0
13/08:00pm 22.8 21.3 17.7 73 3.2 SSE 22 32 12 17 1013.2 1013.2 0.0
13/07:30pm 22.9 21.1 17.8 73 3.2 SSE 24 35 13 19 1012.7 1012.7 0.0
13/07:00pm 23.1 21.1 18.2 74 3.1 SE 26 35 14 19 1012.3 1012.3 0.0
13/06:30pm 23.0 20.4 17.9 73 3.2 SE 28 37 15 20 1012.0 1012.0 0.0
13/06:00pm 23.2 20.2 18.7 76 2.8 SE 32 41 17 22 1011.4 1011.4 0.0
13/05:30pm 23.4 20.4 18.7 75 3.0 SE 32 43 17 23 1011.1 1011.1 0.0
13/05:11pm 23.8 21.1 19.3 76 2.9 SE 32 50 17 27 1010.5 1010.5 0.0
13/05:00pm 23.8 20.8 19.1 75 3.0 SE 33 46 18 25 1010.3 1010.3 0.0
13/04:30pm 24.7 22.1 19.8 74 3.2 SSE 33 46 18 25 1009.7 1009.7 0.0
13/04:00pm 26.2 25.6 20.5 71 3.7 SSE 24 35 13 19 1009.0 1009.0 0.0
13/03:30pm 26.8 27.2 20.9 70 3.9 SE 20 28 11 15 1008.1 1008.1 0.0
13/03:00pm 26.2 27.1 20.8 72 3.6 E 17 28 9 15 1008.0 1008.0 0.0
13/02:30pm 27.2 25.6 20.8 68 4.2 NE 30 39 16 21 1007.0 1007.0 0.0
13/02:00pm 27.8 26.6 21.6 69 4.2 NE 30 35 16 19 1007.5 1007.5 0.0
13/01:30pm 27.7 25.3 20.3 64 4.9 NE 33 41 18 22 1007.8 1007.8 0.0
13/01:00pm 29.1 27.3 20.3 59 5.8 NE 30 39 16 21 1008.3 1008.3 0.0
13/12:38pm 29.9 28.8 17.4 47 7.9 ENE 19 33 10 18 1008.7 1008.7 0.0
13/12:30pm 35.2 33.8 9.6 21 14.7 NNW 7 15 4 8 1008.7 1008.7 0.0
13/12:00pm 34.1 32.1 10.0 23 13.9 NNW 11 22 6 12 1009.2 1009.2 0.0
13/11:30am 33.7 30.6 10.3 24 13.5 W 17 33 9 18 1009.7 1009.7 0.0
13/11:00am 33.1 29.8 11.6 27 12.6 WNW 20 39 11 21 1010.0 1010.0 0.0
13/10:30am 32.1 29.0 12.3 29 11.7 WNW 20 32 11 17 1010.3 1010.3 0.0
13/10:00am 31.3 28.7 13.1 33 10.9 WNW 19 30 10 16 1010.8 1010.8 0.0
13/09:30am 30.0 26.1 13.3 36 9.9 NW 26 35 14 19 1010.9 1010.9 0.0
13/09:00am 28.9 25.6 15.1 43 8.4 NW 26 35 14 19 1011.0 1011.0 0.0
13/08:30am 27.6 24.2 15.9 49 7.2 NW 28 43 15 23 1011.2 1011.2 0.0
13/08:27am 27.6 24.1 15.6 48 7.3 NW 28 43 15 23 1011.2 1011.2 0.0
13/08:14am 26.9 22.5 15.6 50 6.9 NW 33 48 18 26 1011.1 1011.1 0.0
13/08:00am 26.6 22.7 16.5 54 6.2 NW 32 44 17 24 1011.2 1011.2 0.0
13/07:30am 24.9 21.8 16.6 60 5.1 NW 28 41 15 22 1011.1 1011.1 0.0
13/07:00am 24.2 20.5 17.4 65 4.2 NW 33 46 18 25 1011.4 1011.4 0.0
13/06:40am 23.4 19.5 16.9 67 4.0 NW 33 52 18 28 1011.2 1011.2 0.0
13/06:30am 23.1 19.5 17.1 69 3.7 NW 32 43 17 23 1011.0 1011.0 0.0
13/06:00am 22.1 18.5 17.2 74 3.0 NW 32 44 17 24 1010.1 1010.1 0.0
13/05:30am 21.5 18.2 17.1 76 2.7 NW 30 41 16 22 1010.0 1010.0 0.0
13/05:00am 21.0 18.7 16.6 76 2.7 NNW 24 35 13 19 1009.8 1009.8 0.0
13/04:30am 20.9 17.9 16.7 77 2.5 NNW 28 43 15 23 1009.5 1009.5 0.0
13/04:00am 20.8 17.7 16.6 77 2.5 NNW 28 39 15 21 1009.4 1009.4 0.0
13/03:30am 21.2 17.8 16.8 76 2.7 NNW 30 46 16 25 1009.1 1009.1 0.0
13/03:00am 21.2 17.8 16.8 76 2.7 NNW 30 43 16 23 1009.5 1009.5 0.0
13/02:30am 20.9 18.5 16.3 75 2.8 NNW 24 37 13 20 1009.7 1009.7 0.0
13/02:00am 20.9 18.9 16.5 76 2.7 NNW 22 32 12 17 1009.5 1009.5 0.0
13/01:30am 21.2 18.8 16.4 74 2.9 NNW 24 35 13 19 1010.0 1010.0 0.0
13/01:00am 21.1 19.5 15.9 72 3.1 NNW 19 32 10 17 1010.2 1010.2 0.0
13/12:30am 21.3 19.4 15.8 71 3.3 NNW 20 32 11 17 1010.5 1010.5 0.0
13/12:00am 21.5 19.8 15.8 70 3.4 NNW 19 24 10 13 1010.9 1010.9 0.0
 
Date/Time
EST
Temp
°C
App
Temp
°C
Dew
Point
°C
Rel
Hum
%
Delta-T
°C
Wind Press
QNH
hPa
Press
MSL
hPa
Rain since
9am
mm
Dir  Spd
km/h
Gust
km/h
Spd
kts
Gust
kts
12/11:30pm 21.9 20.0 15.7 68 3.7 NNW 20 30 11 16 1011.0 1011.0 0.0

Other formats

Comma delimited format used in spreadsheet applications
http://www.bom.gov.au/fwo/IDQ60801/IDQ60801.94569.axf

JavaScript Object Notation format (JSON) in row-major order
http://www.bom.gov.au/fwo/IDQ60801/IDQ60801.94569.json

Data quality

Most of these data are generated automatically and are frequently updated. Quality checks on data are not normally performed. It is possible for incorrect values to appear. Refer to information at About Latest Weather Observations and please check the disclaimer before using these data.